Карточка аэропорта UUYY

Внимание!
Информация на этой странице в стадии наполнения.
Если вы не увидели какой-то информации, или заметили неточность - пожалуйста сообщите нам!
Спасибо!
Команда RU-STAFF
Название аэропортаСыктывкар
Название аэропорта (англ.)Syktyvkar
Превышение339 ft. (103.3 m.)
Координаты61°38.502', 50°50.298'
Высота перехода3000 feet
Эшелон переходаQNH>=1013hPa:FL040; QNH<1013hPa:FL050; QNH<977hPa:FL060
Коды ответчика3130-3134, 5752-5757, 5770-5777, 6701-6717
Зона ОрВДСанкт-Петербург РПИ (ULLL)
Данные METARUUYY 310600Z 18006MPS 2800 -SN BKN013 M06/M07 Q0995 R18/450242 NOSIG RMK QFE738/0984
Проноз погоды (TAF)UUYY 310500Z 3106/0106 18007G14MPS 4000 -SHSN FEW011 BKN017CB TEMPO 3106/3112 18009G16MPS 0500 +SHSN +FZRA BLSN BKN004 BKN016CB FM311200 20007G14MPS 6000 -SHSN FEW011 BKN017CB TEMPO 3112/3118 20009G16MPS 2100 -SHSN -FZRA BLSN FEW004 BKN016CB TEMPO 3118/0106 20009G16MPS -FZRA FEW005 BKN016CB
NOTAMshow/hide NOTAM
AWOS   TABLE

Информация о ВПП

ВПП Длина ВПП (м.) Покрытие Курс ВПП Частота ILS
012500Асфальтобетон6108.3
192500Асфальтобетон186111.7

Диспетчерские позиции

Позывной Наименование органа УВД Частота
UUYY_R_APPСивкар-Круг124.600
UUYY_TWRСивкар-Старт124.600



Спутниковое изображение